Time;durP1;ratioP1;P1;durP2;ratioP2;P2;SDS_P1;SDS_P2;PMS_P1;PMS_P2;Temp;Humidity;BMP_temperature;BMP_pressure;BME280_temperature;BME280_humidity;BME280_pressure;Samples;Min_cycle;Max_cycle;Signal;HPM_P1;HPM_P2
2021/11/13 00:00:21;;;;;;;3.83;2.37;;;3.60;99.10;;;;;;5080661;28;20640;-81
2021/11/13 00:02:47;;;;;;;4.82;2.70;;;3.70;99.10;;;;;;5080431;28;20402;-81
2021/11/13 00:05:13;;;;;;;4.65;2.05;;;3.70;99.10;;;;;;5080679;28;20209;-80
2021/11/13 00:07:39;;;;;;;4.78;2.03;;;3.70;99.10;;;;;;5080493;28;20256;-80
2021/11/13 00:10:07;;;;;;;2.10;1.95;;;3.70;99.10;;;;;;5080787;28;20247;-80
2021/11/13 00:12:33;;;;;;;1.30;1.30;;;3.70;99.10;;;;;;5080024;28;20172;-81
2021/11/13 00:15:04;;;;;;;5.22;3.78;;;3.70;99.10;;;;;;5081545;28;20178;-81
2021/11/13 00:18:06;;;;;;;7.78;3.33;;;3.70;99.10;;;;;;5086825;28;20693;-82
2021/11/13 00:20:32;;;;;;;14.75;3.00;;;3.80;99.10;;;;;;5039652;28;20203;-82
2021/11/13 00:22:59;;;;;;;1.47;1.37;;;3.80;99.10;;;;;;5080965;28;20202;-82
2021/11/13 00:25:26;;;;;;;12.18;3.55;;;3.80;99.10;;;;;;5079995;28;20406;-83
2021/11/13 00:27:51;;;;;;;1.55;1.45;;;3.80;99.10;;;;;;5080686;28;20245;-84
2021/11/13 00:30:18;;;;;;;8.97;3.53;;;3.80;99.10;;;;;;5081204;28;20594;-83
2021/11/13 00:32:44;;;;;;;3.75;3.53;;;3.90;99.10;;;;;;5080716;28;20401;-83
2021/11/13 00:35:11;;;;;;;5.22;2.40;;;4.00;99.10;;;;;;5080663;28;20172;-83
2021/11/13 00:37:37;;;;;;;2.67;1.88;;;4.00;99.10;;;;;;5080276;28;20192;-84
2021/11/13 00:40:04;;;;;;;4.65;2.00;;;4.00;99.10;;;;;;5080584;28;20175;-84
2021/11/13 00:42:30;;;;;;;10.48;4.20;;;4.00;99.10;;;;;;5080510;28;20203;-83
2021/11/13 00:44:56;;;;;;;5.90;3.03;;;4.10;99.10;;;;;;5080179;28;20172;-83
2021/11/13 00:47:22;;;;;;;1.73;1.63;;;4.20;99.10;;;;;;5079746;28;20250;-82
2021/11/13 00:49:47;;;;;;;16.63;3.30;;;4.20;99.10;;;;;;5079862;28;20921;-84
2021/11/13 00:52:13;;;;;;;2.40;2.20;;;4.20;99.10;;;;;;5080243;28;20418;-83
2021/11/13 00:54:39;;;;;;;3.90;1.53;;;4.30;99.10;;;;;;5080398;28;20468;-82
2021/11/13 00:57:07;;;;;;;3.00;2.05;;;4.30;99.10;;;;;;5080581;28;20475;-82
2021/11/13 00:59:35;;;;;;;8.70;2.63;;;4.30;99.10;;;;;;5079744;28;20547;-82
2021/11/13 01:02:01;;;;;;;7.03;3.90;;;4.30;99.10;;;;;;5080181;28;20195;-82
2021/11/13 01:04:27;;;;;;;3.65;1.85;;;4.20;99.10;;;;;;5080268;28;20171;-82
2021/11/13 01:06:53;;;;;;;3.13;2.17;;;4.30;99.10;;;;;;5080237;28;20535;-82
2021/11/13 01:09:19;;;;;;;3.53;2.00;;;4.40;99.10;;;;;;5079879;28;20461;-83
2021/11/13 01:11:45;;;;;;;7.23;5.07;;;4.40;99.10;;;;;;5079613;28;20421;-83
2021/11/13 01:14:10;;;;;;;14.03;2.77;;;4.40;99.10;;;;;;5079866;28;20413;-82
2021/11/13 01:16:36;;;;;;;7.50;2.20;;;4.40;99.10;;;;;;5080279;28;20414;-83
2021/11/13 01:19:04;;;;;;;1.50;1.40;;;4.40;99.10;;;;;;5080152;28;20459;-81
2021/11/13 01:21:30;;;;;;;4.20;2.25;;;4.30;99.10;;;;;;5079248;28;20195;-83
2021/11/13 01:23:56;;;;;;;1.88;1.10;;;4.30;99.10;;;;;;5079174;28;20610;-83
2021/11/13 01:26:22;;;;;;;3.80;2.45;;;4.20;99.10;;;;;;5079230;28;20249;-84
2021/11/13 01:28:48;;;;;;;4.53;1.40;;;4.20;99.10;;;;;;5079270;28;20192;-84
2021/11/13 01:31:15;;;;;;;3.00;2.25;;;4.10;99.10;;;;;;5079871;28;20414;-83
2021/11/13 01:33:43;;;;;;;3.92;3.10;;;4.10;99.10;;;;;;5079169;28;20176;-82
2021/11/13 01:36:09;;;;;;;4.47;1.35;;;4.10;99.10;;;;;;5079018;28;20412;-83
2021/11/13 01:38:36;;;;;;;3.97;1.40;;;4.00;99.10;;;;;;5078598;28;20328;-82
2021/11/13 01:41:02;;;;;;;2.75;1.90;;;3.90;99.10;;;;;;5078827;28;20240;-83
2021/11/13 01:43:34;;;;;;;18.25;5.60;;;3.90;99.10;;;;;;5078414;28;20176;-82
2021/11/13 01:46:02;;;;;;;2.17;1.77;;;3.90;99.10;;;;;;5078382;28;20251;-83
2021/11/13 01:48:29;;;;;;;9.10;4.28;;;3.90;99.10;;;;;;5078574;28;20248;-82
2021/11/13 01:50:56;;;;;;;2.92;2.13;;;3.80;99.10;;;;;;5078407;28;20168;-83
2021/11/13 01:53:23;;;;;;;2.83;2.10;;;3.80;99.10;;;;;;5078069;28;20266;-82
2021/11/13 01:55:49;;;;;;;6.25;2.47;;;3.90;99.10;;;;;;5078622;28;20182;-83
2021/11/13 01:58:15;;;;;;;10.20;2.65;;;3.80;99.10;;;;;;5078774;28;20195;-82
2021/11/13 02:00:52;;;;;;;8.03;2.77;;;3.80;99.10;;;;;;5079323;28;20234;-83
2021/11/13 02:03:18;;;;;;;8.85;3.35;;;3.80;99.10;;;;;;5079457;28;20429;-83
2021/11/13 02:05:44;;;;;;;4.28;1.90;;;3.90;99.10;;;;;;5080314;28;20167;-83
2021/11/13 02:08:10;;;;;;;7.33;2.80;;;4.00;99.10;;;;;;5079536;28;20204;-80
2021/11/13 02:10:36;;;;;;;2.60;2.40;;;4.00;99.10;;;;;;5080688;28;20773;-80
2021/11/13 02:13:02;;;;;;;5.75;2.90;;;4.10;99.10;;;;;;5080967;28;20413;-80
2021/11/13 02:15:28;;;;;;;9.02;3.60;;;4.10;99.10;;;;;;5080479;28;20662;-80
2021/11/13 02:17:57;;;;;;;3.40;2.80;;;4.10;99.10;;;;;;5079979;28;20192;-80
2021/11/13 02:20:26;;;;;;;9.00;4.20;;;4.20;99.10;;;;;;5080138;28;20176;-80
2021/11/13 02:22:55;;;;;;;6.13;3.20;;;4.20;99.10;;;;;;5080490;28;20187;-80
2021/11/13 02:25:25;;;;;;;4.60;3.85;;;4.30;99.10;;;;;;5080467;28;20601;-80
2021/11/13 02:27:51;;;;;;;4.03;1.90;;;4.30;99.10;;;;;;5080896;28;20206;-80
2021/11/13 02:30:18;;;;;;;5.10;2.42;;;4.20;99.10;;;;;;5080898;28;20172;-81
2021/11/13 02:32:45;;;;;;;9.90;5.03;;;4.20;99.10;;;;;;5081668;28;20175;-80
2021/11/13 02:35:12;;;;;;;3.95;1.88;;;4.20;99.10;;;;;;5080480;28;20171;-81
2021/11/13 02:37:38;;;;;;;2.97;2.10;;;4.20;99.10;;;;;;5080050;28;20655;-80
2021/11/13 02:40:07;;;;;;;6.18;1.27;;;4.20;99.10;;;;;;5080411;28;20176;-80
2021/11/13 02:42:35;;;;;;;11.10;3.05;;;4.30;99.10;;;;;;5080917;28;20253;-80
2021/11/13 02:45:02;;;;;;;5.88;3.30;;;4.20;99.10;;;;;;5080404;28;20255;-80
2021/11/13 02:47:28;;;;;;;15.18;5.47;;;4.20;99.10;;;;;;5080251;28;20175;-80
2021/11/13 02:49:54;;;;;;;8.67;3.80;;;4.20;99.10;;;;;;5080371;28;20172;-81
2021/11/13 02:52:20;;;;;;;3.25;2.40;;;4.20;99.10;;;;;;5080039;28;20419;-80
2021/11/13 02:54:48;;;;;;;2.50;2.33;;;4.30;99.10;;;;;;5079693;28;20689;-81
2021/11/13 02:57:14;;;;;;;2.50;1.73;;;4.30;99.10;;;;;;5080604;28;20175;-81
2021/11/13 02:59:49;;;;;;;2.17;2.00;;;4.40;99.10;;;;;;5080622;28;20186;-80
2021/11/13 03:02:16;;;;;;;2.38;2.17;;;4.30;99.10;;;;;;5079956;28;20205;-80
2021/11/13 03:04:42;;;;;;;4.85;3.42;;;4.30;99.10;;;;;;5080051;28;20540;-80
2021/11/13 03:07:08;;;;;;;13.07;3.75;;;4.30;99.10;;;;;;5077848;28;20262;-81
2021/11/13 03:09:35;;;;;;;14.17;3.07;;;4.30;99.10;;;;;;5077576;28;20223;-80
2021/11/13 03:12:02;;;;;;;2.05;1.92;;;4.30;99.10;;;;;;5077981;28;20451;-80
2021/11/13 03:14:28;;;;;;;4.60;2.20;;;4.40;99.10;;;;;;5078050;28;20183;-80
2021/11/13 03:17:00;;;;;;;2.63;1.60;;;4.40;99.10;;;;;;5078751;28;20196;-80
2021/11/13 03:19:26;;;;;;;2.40;2.20;;;4.30;99.10;;;;;;5078856;28;20191;-80
2021/11/13 03:21:52;;;;;;;4.53;1.80;;;4.30;99.10;;;;;;5078130;28;20220;-80
2021/11/13 03:24:18;;;;;;;7.87;3.37;;;4.30;99.10;;;;;;5078026;28;20233;-80
2021/11/13 03:26:45;;;;;;;5.75;2.70;;;4.30;99.10;;;;;;5081331;28;20914;-81
2021/11/13 03:29:18;;;;;;;5.88;4.95;;;4.40;99.10;;;;;;5080363;28;20188;-80
2021/11/13 03:31:45;;;;;;;3.45;2.40;;;4.30;99.10;;;;;;5081684;28;20190;-80
2021/11/13 03:34:11;;;;;;;2.05;1.75;;;4.40;99.10;;;;;;5079876;28;20230;-80
2021/11/13 03:36:37;;;;;;;6.55;1.58;;;4.30;99.10;;;;;;5079965;28;20194;-80
2021/11/13 03:39:07;;;;;;;2.70;1.42;;;4.10;99.10;;;;;;5081058;28;20196;-81
2021/11/13 03:41:33;;;;;;;1.92;1.70;;;4.10;99.10;;;;;;5080099;28;20290;-80
2021/11/13 03:43:59;;;;;;;4.40;3.30;;;4.10;99.10;;;;;;5079606;28;20316;-80
2021/11/13 03:46:25;;;;;;;1.40;1.23;;;4.00;99.10;;;;;;5080242;28;20692;-80
2021/11/13 03:48:52;;;;;;;15.07;2.88;;;4.00;99.10;;;;;;5079900;28;20219;-80
2021/11/13 03:51:19;;;;;;;2.08;1.40;;;3.90;99.10;;;;;;5079148;28;20176;-81
2021/11/13 03:53:46;;;;;;;5.18;2.05;;;3.80;99.10;;;;;;5080278;28;20616;-80
2021/11/13 03:56:12;;;;;;;2.30;1.75;;;3.80;99.10;;;;;;5079865;28;20183;-80
2021/11/13 03:58:38;;;;;;;10.23;3.23;;;3.70;99.10;;;;;;5079734;28;20191;-80
2021/11/13 04:01:03;;;;;;;6.80;1.30;;;3.70;99.10;;;;;;5081885;28;20247;-80
2021/11/13 04:03:29;;;;;;;2.30;2.13;;;3.70;99.10;;;;;;5084233;28;20402;-80
2021/11/13 04:05:56;;;;;;;1.90;1.80;;;3.70;99.10;;;;;;5086695;28;20425;-80
2021/11/13 04:08:22;;;;;;;1.92;1.42;;;3.70;99.10;;;;;;5083619;28;20461;-80
2021/11/13 04:10:47;;;;;;;14.80;2.03;;;3.80;99.10;;;;;;5083314;28;20514;-80
2021/11/13 04:13:13;;;;;;;2.20;1.73;;;3.80;99.10;;;;;;5083602;28;20182;-80
2021/11/13 04:15:39;;;;;;;7.10;3.17;;;3.80;99.10;;;;;;5083447;28;20815;-80
2021/11/13 04:18:06;;;;;;;1.95;1.85;;;3.80;99.10;;;;;;5082810;28;20479;-80
2021/11/13 04:20:32;;;;;;;4.28;2.00;;;3.90;99.10;;;;;;5083133;28;20597;-80
2021/11/13 04:22:58;;;;;;;9.35;2.22;;;3.80;99.10;;;;;;5083903;28;20665;-80
2021/11/13 04:25:24;;;;;;;1.63;1.37;;;3.80;99.10;;;;;;5083339;28;20164;-80
2021/11/13 04:27:51;;;;;;;8.40;2.15;;;3.80;99.10;;;;;;5083621;28;20517;-80
2021/11/13 04:30:17;;;;;;;2.15;2.00;;;3.80;99.10;;;;;;5082320;28;20168;-80
2021/11/13 04:32:45;;;;;;;1.67;1.58;;;3.70;99.10;;;;;;5082704;28;20172;-80
2021/11/13 04:35:18;;;;;;;4.18;3.95;;;3.70;99.10;;;;;;5082402;28;20176;-80
2021/11/13 04:37:48;;;;;;;5.88;1.90;;;3.80;99.10;;;;;;5082687;28;20187;-80
2021/11/13 04:40:15;;;;;;;1.35;1.25;;;3.80;99.10;;;;;;5083014;28;20178;-81
2021/11/13 04:42:41;;;;;;;1.83;1.50;;;3.70;99.10;;;;;;5082528;28;20200;-80
2021/11/13 04:45:07;;;;;;;1.20;1.20;;;3.70;99.10;;;;;;5082355;28;20676;-80
2021/11/13 04:47:34;;;;;;;4.00;1.80;;;3.70;99.10;;;;;;5082598;28;20505;-83
2021/11/13 04:50:01;;;;;;;7.70;2.20;;;3.60;99.10;;;;;;5083177;28;20197;-80
2021/11/13 04:52:27;;;;;;;3.70;3.42;;;3.70;99.10;;;;;;5082384;28;20180;-80
2021/11/13 04:54:53;;;;;;;3.25;2.17;;;3.70;99.10;;;;;;5082172;28;20168;-79
2021/11/13 04:57:19;;;;;;;4.60;2.95;;;3.60;99.10;;;;;;5078329;28;20175;-79
2021/11/13 04:59:45;;;;;;;2.23;2.07;;;3.60;99.10;;;;;;5078410;28;20179;-79
2021/11/13 05:02:10;;;;;;;1.00;0.90;;;3.70;99.10;;;;;;5078257;28;20196;-79
2021/11/13 05:04:36;;;;;;;14.77;3.80;;;3.70;99.10;;;;;;5078018;28;20405;-79
2021/11/13 05:07:02;;;;;;;10.13;3.67;;;3.70;99.10;;;;;;5077810;28;20180;-79
2021/11/13 05:09:28;;;;;;;3.97;3.75;;;3.60;99.10;;;;;;5078250;28;20430;-79
2021/11/13 05:11:54;;;;;;;2.30;1.83;;;3.60;99.10;;;;;;5077790;28;20194;-79
2021/11/13 05:14:20;;;;;;;4.57;2.20;;;3.60;99.10;;;;;;5077979;28;20449;-79
2021/11/13 05:16:46;;;;;;;2.25;1.70;;;3.70;99.10;;;;;;5077955;28;20467;-79
2021/11/13 05:19:11;;;;;;;7.93;1.90;;;3.70;99.10;;;;;;5077406;28;20607;-79
2021/11/13 05:21:38;;;;;;;2.30;2.10;;;3.80;99.10;;;;;;5077612;28;20449;-80
2021/11/13 05:24:04;;;;;;;4.07;2.92;;;3.80;99.10;;;;;;5077666;28;20258;-79
2021/11/13 05:26:30;;;;;;;2.00;1.90;;;3.80;99.10;;;;;;5077690;28;20183;-80
2021/11/13 05:28:56;;;;;;;4.35;2.78;;;3.80;99.10;;;;;;5077689;28;20191;-80
2021/11/13 05:31:22;;;;;;;1.87;1.53;;;3.90;99.10;;;;;;5077467;28;20194;-79
2021/11/13 05:33:48;;;;;;;6.13;2.70;;;3.90;99.10;;;;;;5077534;28;20175;-79
2021/11/13 05:36:13;;;;;;;1.97;1.40;;;3.90;99.10;;;;;;5077666;28;20418;-80
2021/11/13 05:38:39;;;;;;;2.50;1.70;;;3.90;99.10;;;;;;5077821;28;20973;-80
2021/11/13 05:41:05;;;;;;;1.43;1.00;;;3.90;99.10;;;;;;5076992;28;20203;-80
2021/11/13 05:43:31;;;;;;;11.77;4.10;;;3.90;99.10;;;;;;5077906;28;20424;-80
2021/11/13 05:45:57;;;;;;;2.00;1.90;;;3.90;99.10;;;;;;5077544;28;20168;-80
2021/11/13 05:48:23;;;;;;;2.33;1.15;;;3.90;99.10;;;;;;5077087;28;20618;-79
2021/11/13 05:51:02;;;;;;;6.22;2.25;;;3.80;99.10;;;;;;5077337;28;20176;-80
2021/11/13 05:53:29;;;;;;;7.53;1.38;;;3.80;99.10;;;;;;5077322;28;20175;-79
2021/11/13 05:55:54;;;;;;;7.57;2.78;;;3.80;99.10;;;;;;5077286;28;20182;-80
2021/11/13 05:58:20;;;;;;;1.80;1.70;;;3.80;99.10;;;;;;5076938;28;20275;-79
2021/11/13 06:00:47;;;;;;;5.73;2.20;;;3.80;99.10;;;;;;5077167;28;20565;-79
2021/11/13 06:03:13;;;;;;;4.55;2.28;;;3.70;99.10;;;;;;5076987;28;20406;-80
2021/11/13 06:05:40;;;;;;;7.97;2.37;;;3.70;99.10;;;;;;5076868;28;20172;-80
2021/11/13 06:08:06;;;;;;;1.67;1.58;;;3.70;99.10;;;;;;5076549;28;20458;-80
2021/11/13 06:10:31;;;;;;;2.67;1.10;;;3.80;99.10;;;;;;5076635;28;20250;-79
2021/11/13 06:12:57;;;;;;;3.93;1.90;;;3.80;99.10;;;;;;5076750;28;20473;-80
2021/11/13 06:15:26;;;;;;;4.77;1.77;;;3.80;99.10;;;;;;5076711;28;20410;-80
2021/11/13 06:17:52;;;;;;;3.10;2.72;;;3.80;99.10;;;;;;5076507;28;20454;-79
2021/11/13 06:20:18;;;;;;;6.40;3.13;;;3.80;99.10;;;;;;5077076;28;20217;-79
2021/11/13 06:22:44;;;;;;;1.43;1.33;;;3.70;99.10;;;;;;5075876;28;20206;-79
2021/11/13 06:25:11;;;;;;;2.25;1.65;;;3.70;99.10;;;;;;5076874;28;20416;-79
2021/11/13 06:27:38;;;;;;;1.33;1.02;;;3.70;99.10;;;;;;5076560;28;20724;-79
2021/11/13 06:30:06;;;;;;;2.17;1.27;;;3.60;99.10;;;;;;5077701;28;20179;-79
2021/11/13 06:32:32;;;;;;;1.30;1.20;;;3.60;99.10;;;;;;5076595;28;20171;-79
2021/11/13 06:34:59;;;;;;;2.93;1.83;;;3.60;99.10;;;;;;5076908;28;20191;-79
2021/11/13 06:37:26;;;;;;;2.10;1.92;;;3.50;99.10;;;;;;5081668;28;20504;-80
2021/11/13 06:39:52;;;;;;;4.13;1.42;;;3.60;99.10;;;;;;5081629;28;20206;-80
2021/11/13 06:42:18;;;;;;;1.80;0.97;;;3.50;99.10;;;;;;5080444;28;20199;-81
2021/11/13 06:44:45;;;;;;;3.50;1.30;;;3.50;99.10;;;;;;5080599;28;20443;-81
2021/11/13 06:47:11;;;;;;;9.00;2.30;;;3.50;99.10;;;;;;5080206;28;20172;-80
2021/11/13 06:49:36;;;;;;;2.20;1.63;;;3.40;99.10;;;;;;5080940;28;20816;-80
2021/11/13 06:52:02;;;;;;;2.53;2.30;;;3.40;99.10;;;;;;5080345;28;20539;-81
2021/11/13 06:54:28;;;;;;;1.90;1.77;;;3.40;99.10;;;;;;5079642;28;20414;-81
2021/11/13 06:56:54;;;;;;;1.43;1.03;;;3.40;99.10;;;;;;5079952;28;20172;-81
2021/11/13 06:59:20;;;;;;;4.33;1.63;;;3.50;99.10;;;;;;5080411;28;20278;-81
2021/11/13 07:01:46;;;;;;;1.48;1.38;;;3.40;99.10;;;;;;5080106;28;20453;-81
2021/11/13 07:04:15;;;;;;;1.33;1.23;;;3.40;99.10;;;;;;5080102;28;20178;-81
2021/11/13 07:06:41;;;;;;;7.15;3.03;;;3.40;99.10;;;;;;5081975;28;20168;-81
2021/11/13 07:09:06;;;;;;;2.57;2.27;;;3.30;99.10;;;;;;5082527;28;20664;-81
2021/11/13 07:11:32;;;;;;;4.57;2.17;;;3.40;99.10;;;;;;5081842;28;21006;-81
2021/11/13 07:13:58;;;;;;;0.60;0.50;;;3.40;99.10;;;;;;5083520;28;20442;-81
2021/11/13 07:16:24;;;;;;;6.00;1.80;;;3.40;99.10;;;;;;5083544;28;20167;-81
2021/11/13 07:18:50;;;;;;;2.90;1.27;;;3.40;99.10;;;;;;5083799;28;20426;-81
2021/11/13 07:21:16;;;;;;;4.60;1.90;;;3.40;99.10;;;;;;5083533;28;20537;-80
2021/11/13 07:23:42;;;;;;;8.43;2.90;;;3.40;99.10;;;;;;5082724;28;20167;-83
2021/11/13 07:26:10;;;;;;;11.23;3.45;;;3.40;99.10;;;;;;5083178;28;20983;-82
2021/11/13 07:28:41;;;;;;;3.13;2.92;;;3.40;99.10;;;;;;5082572;28;20191;-81
2021/11/13 07:31:14;;;;;;;7.32;1.23;;;3.40;99.10;;;;;;5082044;28;20168;-81
2021/11/13 07:33:40;;;;;;;4.13;2.28;;;3.50;99.10;;;;;;5079025;28;20179;-79
2021/11/13 07:36:07;;;;;;;2.35;2.17;;;3.50;99.10;;;;;;5081376;28;20175;-80
2021/11/13 07:38:34;;;;;;;1.80;1.70;;;3.40;99.10;;;;;;5080941;28;20802;-80
2021/11/13 07:41:00;;;;;;;2.58;2.38;;;3.40;99.10;;;;;;5080743;28;20202;-82
2021/11/13 07:43:26;;;;;;;2.25;1.67;;;3.50;99.10;;;;;;5080800;28;20168;-80
2021/11/13 07:45:52;;;;;;;4.07;2.57;;;3.50;99.10;;;;;;5080613;28;20168;-81
2021/11/13 07:48:18;;;;;;;1.75;1.55;;;3.40;99.10;;;;;;5080625;28;20709;-81
2021/11/13 07:50:44;;;;;;;8.75;1.55;;;3.40;99.10;;;;;;5083256;28;20176;-84
2021/11/13 07:53:10;;;;;;;2.70;2.30;;;3.40;99.10;;;;;;5084863;28;20175;-83
2021/11/13 07:55:38;;;;;;;2.20;2.05;;;3.50;99.10;;;;;;5085812;28;20817;-83
2021/11/13 07:58:06;;;;;;;1.95;1.42;;;3.50;99.10;;;;;;5084696;28;20192;-83
2021/11/13 08:00:34;;;;;;;5.20;1.08;;;3.60;99.10;;;;;;5085360;28;20179;-83
2021/11/13 08:03:00;;;;;;;2.28;1.48;;;3.60;99.10;;;;;;5083233;28;20545;-84
2021/11/13 08:05:26;;;;;;;1.48;1.02;;;3.70;99.10;;;;;;5084702;28;20168;-86
2021/11/13 08:07:52;;;;;;;2.00;1.70;;;3.70;99.10;;;;;;5083705;28;20204;-85
2021/11/13 08:10:21;;;;;;;1.23;1.15;;;3.80;99.10;;;;;;5084690;28;20818;-83
2021/11/13 08:12:47;;;;;;;3.53;2.70;;;3.80;99.10;;;;;;5083692;28;20206;-82
2021/11/13 08:15:14;;;;;;;2.17;2.03;;;3.90;99.10;;;;;;5084556;28;20187;-84
2021/11/13 08:17:42;;;;;;;2.58;1.38;;;3.90;99.10;;;;;;5084362;28;20192;-84
2021/11/13 08:20:11;;;;;;;1.88;1.77;;;4.00;99.10;;;;;;5085936;28;20232;-84
2021/11/13 08:22:37;;;;;;;10.63;3.55;;;4.10;99.10;;;;;;5085974;28;20196;-82
2021/11/13 08:25:05;;;;;;;3.30;2.50;;;4.20;99.10;;;;;;5086154;28;20274;-82
2021/11/13 08:27:30;;;;;;;2.22;2.05;;;4.30;99.10;;;;;;5083764;28;20168;-83
2021/11/13 08:29:57;;;;;;;3.97;3.00;;;4.40;99.10;;;;;;5084364;28;20617;-83
2021/11/13 08:32:23;;;;;;;3.47;3.28;;;4.40;99.10;;;;;;5086230;28;20809;-84
2021/11/13 08:34:49;;;;;;;1.80;1.73;;;4.60;99.10;;;;;;5087033;28;20179;-83
2021/11/13 08:37:15;;;;;;;3.77;1.33;;;4.60;99.10;;;;;;5086682;28;20175;-83
2021/11/13 08:39:41;;;;;;;2.70;1.90;;;4.70;99.10;;;;;;5087830;28;20475;-81
2021/11/13 08:42:11;;;;;;;6.10;3.03;;;4.80;99.10;;;;;;5085624;28;20265;-81
2021/11/13 08:44:46;;;;;;;6.80;2.33;;;5.00;99.10;;;;;;5086291;28;20485;-82
2021/11/13 08:47:13;;;;;;;2.08;1.58;;;5.10;98.70;;;;;;5084453;28;20530;-82
2021/11/13 08:49:41;;;;;;;2.28;1.20;;;5.10;98.50;;;;;;5083820;28;20191;-80
2021/11/13 08:52:09;;;;;;;3.55;2.58;;;5.10;98.30;;;;;;5082905;28;20675;-80
2021/11/13 08:54:35;;;;;;;3.83;2.08;;;5.20;98.30;;;;;;5083524;28;20179;-82
2021/11/13 08:57:04;;;;;;;6.57;2.55;;;5.10;98.40;;;;;;5084158;28;20172;-81
2021/11/13 08:59:31;;;;;;;1.15;1.05;;;5.10;98.30;;;;;;5084796;28;20245;-81
2021/11/13 09:02:00;;;;;;;2.20;1.65;;;5.20;98.30;;;;;;5084129;28;20202;-81
2021/11/13 09:04:26;;;;;;;1.65;1.15;;;5.20;98.60;;;;;;5084252;28;20539;-81
2021/11/13 09:06:53;;;;;;;3.42;1.60;;;5.10;98.30;;;;;;5084100;28;20164;-81
2021/11/13 09:09:19;;;;;;;3.97;2.17;;;5.10;98.10;;;;;;5085996;28;20224;-81
2021/11/13 09:11:45;;;;;;;3.53;3.33;;;5.10;98.20;;;;;;5085212;28;20172;-81
2021/11/13 09:14:15;;;;;;;3.47;2.58;;;5.10;98.10;;;;;;5082952;28;20198;-81
2021/11/13 09:16:41;;;;;;;4.90;2.47;;;5.10;98.70;;;;;;5082480;28;20168;-81
2021/11/13 09:19:08;;;;;;;3.97;2.65;;;5.10;98.80;;;;;;5080751;28;20198;-81
2021/11/13 09:21:34;;;;;;;10.65;4.70;;;5.00;98.90;;;;;;5081476;28;20283;-81
2021/11/13 09:24:01;;;;;;;3.60;3.40;;;5.10;99.00;;;;;;5082223;28;20580;-82
2021/11/13 09:26:27;;;;;;;1.83;1.73;;;5.10;99.00;;;;;;5081547;28;20171;-82
2021/11/13 09:28:55;;;;;;;1.20;1.10;;;5.20;99.10;;;;;;5082251;28;20200;-81
2021/11/13 09:31:21;;;;;;;2.85;2.45;;;5.20;98.80;;;;;;5081699;28;20262;-81
2021/11/13 09:33:47;;;;;;;1.10;1.00;;;5.30;98.50;;;;;;5081039;28;20261;-81
2021/11/13 09:36:13;;;;;;;3.33;1.30;;;5.40;98.50;;;;;;5083454;28;20454;-82
2021/11/13 09:38:44;;;;;;;5.03;2.33;;;5.40;98.40;;;;;;5081468;28;20461;-81
2021/11/13 09:41:11;;;;;;;4.72;2.03;;;5.50;98.20;;;;;;5081154;28;20282;-81
2021/11/13 09:43:38;;;;;;;1.58;1.48;;;5.50;98.10;;;;;;5080241;28;20175;-81
2021/11/13 09:46:08;;;;;;;2.80;1.55;;;5.60;98.10;;;;;;5080494;28;20194;-82
2021/11/13 09:48:34;;;;;;;3.08;2.17;;;5.60;98.10;;;;;;5080726;28;20245;-81
2021/11/13 09:51:01;;;;;;;7.57;2.95;;;5.80;97.90;;;;;;5079426;28;20199;-81
2021/11/13 09:53:28;;;;;;;6.45;2.83;;;5.90;97.90;;;;;;5078893;28;20172;-81
2021/11/13 09:55:55;;;;;;;2.97;1.65;;;6.00;96.70;;;;;;5079213;28;20168;-81
2021/11/13 09:58:22;;;;;;;2.83;1.80;;;6.20;96.90;;;;;;5077674;28;20228;-82
2021/11/13 10:00:48;;;;;;;9.63;5.07;;;6.30;96.50;;;;;;5079403;28;20221;-82
2021/11/13 10:03:18;;;;;;;2.25;2.03;;;6.40;96.20;;;;;;5078541;28;20167;-81
2021/11/13 10:05:47;;;;;;;2.70;1.52;;;6.50;95.90;;;;;;5080654;28;20163;-82
2021/11/13 10:08:13;;;;;;;3.45;2.28;;;6.70;95.80;;;;;;5080367;28;20214;-82
2021/11/13 10:10:41;;;;;;;3.70;2.10;;;6.90;95.70;;;;;;5079425;28;20708;-82
2021/11/13 10:13:37;;;;;;;11.90;2.30;;;7.00;95.00;;;;;;5080316;28;20901;-82
2021/11/13 10:16:04;;;;;;;2.30;2.13;;;7.00;95.50;;;;;;5080116;28;20167;-81
2021/11/13 10:18:33;;;;;;;3.33;3.13;;;7.00;97.30;;;;;;5082276;28;20599;-82
2021/11/13 10:21:13;;;;;;;6.10;2.58;;;7.00;98.50;;;;;;5083629;28;20795;-82
2021/11/13 10:23:45;;;;;;;6.05;2.95;;;7.10;98.90;;;;;;5085031;28;20160;-82
2021/11/13 10:26:15;;;;;;;6.18;2.50;;;7.00;99.10;;;;;;5088176;28;20159;-82
2021/11/13 10:28:48;;;;;;;3.08;2.88;;;6.90;99.10;;;;;;5087197;28;20191;-82
2021/11/13 10:31:19;;;;;;;5.60;2.58;;;6.90;99.10;;;;;;5088652;28;20247;-82
2021/11/13 10:33:46;;;;;;;3.72;2.60;;;6.80;99.10;;;;;;5086340;28;20636;-82
2021/11/13 10:36:12;;;;;;;4.75;2.38;;;6.80;99.10;;;;;;5088951;28;20240;-82
2021/11/13 10:38:42;;;;;;;3.25;1.90;;;6.90;99.10;;;;;;5085577;28;20290;-82
2021/11/13 10:41:11;;;;;;;7.95;3.15;;;7.00;99.10;;;;;;5082506;28;20204;-83
2021/11/13 10:43:43;;;;;;;5.68;3.53;;;7.00;99.10;;;;;;5086231;28;20175;-82
2021/11/13 10:46:12;;;;;;;6.85;3.28;;;7.00;99.10;;;;;;5101186;28;20217;-82
2021/11/13 10:48:47;;;;;;;3.85;2.67;;;7.00;99.10;;;;;;5082265;28;20194;-81
2021/11/13 10:51:21;;;;;;;4.13;2.20;;;7.00;99.10;;;;;;5082273;28;20229;-82
2021/11/13 10:53:48;;;;;;;6.78;2.25;;;7.00;99.10;;;;;;5082646;28;20178;-81
2021/11/13 10:56:26;;;;;;;3.75;2.13;;;7.10;99.10;;;;;;5079186;28;20207;-81
2021/11/13 10:59:00;;;;;;;5.57;2.63;;;7.10;99.10;;;;;;5079550;28;20195;-81
2021/11/13 11:01:37;;;;;;;5.05;2.35;;;7.20;99.10;;;;;;5079276;28;20231;-81
2021/11/13 11:04:14;;;;;;;4.90;4.05;;;7.30;99.10;;;;;;5079614;28;20179;-81
2021/11/13 11:06:42;;;;;;;2.22;1.85;;;7.30;99.10;;;;;;5079677;28;20221;-81
2021/11/13 11:09:20;;;;;;;5.72;2.30;;;7.20;99.10;;;;;;5081163;28;20621;-81
2021/11/13 11:11:47;;;;;;;1.88;1.80;;;7.30;99.10;;;;;;5084611;28;20177;-81
2021/11/13 11:14:19;;;;;;;3.88;3.28;;;7.30;99.10;;;;;;5084091;28;20183;-81
2021/11/13 11:16:58;;;;;;;2.90;2.45;;;7.40;99.10;;;;;;5084867;28;20365;-81
2021/11/13 11:19:34;;;;;;;6.53;3.35;;;7.40;99.10;;;;;;5084545;28;20703;-81
2021/11/13 11:22:07;;;;;;;5.40;3.60;;;7.50;99.10;;;;;;5084357;28;20205;-83
2021/11/13 11:24:43;;;;;;;4.97;2.28;;;7.50;99.10;;;;;;5084988;28;20256;-83
2021/11/13 11:27:26;;;;;;;14.85;4.20;;;7.60;99.10;;;;;;5084439;28;20510;-83
2021/11/13 11:30:00;;;;;;;4.80;2.45;;;7.60;99.10;;;;;;5084186;28;20175;-83
2021/11/13 11:32:35;;;;;;;2.85;1.40;;;7.70;99.10;;;;;;5084331;28;20159;-83
2021/11/13 11:35:07;;;;;;;5.15;3.67;;;7.90;98.90;;;;;;5086416;28;20182;-80
2021/11/13 11:37:42;;;;;;;4.43;2.78;;;7.90;99.00;;;;;;5085493;28;20164;-80
2021/11/13 11:40:14;;;;;;;4.00;3.80;;;7.90;98.50;;;;;;5083478;28;20171;-85
2021/11/13 11:42:44;;;;;;;2.63;1.52;;;8.00;98.40;;;;;;5082091;28;20223;-83
2021/11/13 11:45:14;;;;;;;4.25;2.88;;;8.00;98.70;;;;;;5082684;28;20164;-83
2021/11/13 11:47:42;;;;;;;3.67;2.45;;;8.10;99.00;;;;;;5082669;28;20191;-83
2021/11/13 11:50:11;;;;;;;5.22;4.22;;;8.20;99.10;;;;;;5082252;28;20696;-84
2021/11/13 11:52:40;;;;;;;2.53;2.33;;;8.30;99.00;;;;;;5082992;28;20178;-84
2021/11/13 11:55:07;;;;;;;6.75;2.40;;;8.30;99.10;;;;;;5082468;28;20644;-82
2021/11/13 11:57:36;;;;;;;2.35;2.17;;;8.40;98.90;;;;;;5081654;28;20266;-83
2021/11/13 12:00:15;;;;;;;5.95;4.65;;;8.40;98.80;;;;;;5081419;28;20269;-82
2021/11/13 12:02:50;;;;;;;6.72;4.13;;;8.50;98.90;;;;;;5083054;28;20211;-82
2021/11/13 12:05:19;;;;;;;4.22;2.92;;;8.60;98.90;;;;;;5082158;28;20174;-83
2021/11/13 12:07:47;;;;;;;6.68;3.88;;;8.60;98.80;;;;;;5081638;28;20203;-84
2021/11/13 12:10:26;;;;;;;9.05;3.38;;;8.60;98.60;;;;;;5081157;28;20601;-84
2021/11/13 12:13:09;;;;;;;6.15;3.05;;;8.50;98.60;;;;;;5081822;28;20182;-82
2021/11/13 12:15:56;;;;;;;4.57;4.28;;;8.50;98.00;;;;;;5082457;28;20164;-84
2021/11/13 12:18:27;;;;;;;4.43;2.53;;;8.50;98.10;;;;;;5083050;28;20176;-83
2021/11/13 12:21:04;;;;;;;5.13;3.90;;;8.60;98.10;;;;;;5080128;28;20218;-83
2021/11/13 12:23:45;;;;;;;8.35;3.78;;;8.60;98.60;;;;;;5082015;28;20183;-84
2021/11/13 12:26:18;;;;;;;9.32;2.85;;;8.60;98.90;;;;;;5081889;28;20179;-83
2021/11/13 12:28:47;;;;;;;5.75;3.40;;;8.60;99.10;;;;;;5081511;28;20195;-83
2021/11/13 12:31:16;;;;;;;4.80;2.70;;;8.70;99.10;;;;;;5081894;28;20168;-84
2021/11/13 12:33:47;;;;;;;3.90;2.95;;;8.70;99.10;;;;;;5099358;28;20170;-84
2021/11/13 12:36:17;;;;;;;8.02;4.82;;;8.70;98.70;;;;;;5081198;28;20654;-83
2021/11/13 12:38:59;;;;;;;9.00;4.30;;;8.80;98.80;;;;;;5080974;28;20278;-84
2021/11/13 12:41:41;;;;;;;6.50;3.00;;;8.70;98.60;;;;;;5080764;28;20199;-84
2021/11/13 12:44:20;;;;;;;8.43;4.38;;;8.70;98.40;;;;;;5081188;28;20184;-84
2021/11/13 12:47:01;;;;;;;4.35;4.05;;;8.60;98.30;;;;;;5080961;28;20176;-84
2021/11/13 12:49:26;;;;;;;6.45;3.88;;;8.60;98.30;;;;;;5080910;28;20245;-85
2021/11/13 12:51:52;;;;;;;2.50;2.30;;;8.50;98.40;;;;;;5081183;28;20172;-84
2021/11/13 12:54:24;;;;;;;5.17;3.63;;;8.50;98.50;;;;;;5080353;28;20650;-85
2021/11/13 12:56:55;;;;;;;10.90;5.78;;;8.50;99.00;;;;;;5080599;28;20417;-85
2021/11/13 12:59:24;;;;;;;6.65;4.15;;;8.60;98.90;;;;;;5099298;28;20188;-84